sensor_id;sensor_type;location;lat;lon;timestamp;P1;durP1;ratioP1;P2;durP2;ratioP2
46777;SDS011;32536;47.128;8.746;2023-09-08T00:02:23;8.20;;;4.85;;
46777;SDS011;32536;47.128;8.746;2023-09-08T00:04:51;5.40;;;3.97;;
46777;SDS011;32536;47.128;8.746;2023-09-08T00:07:18;4.53;;;2.97;;
46777;SDS011;32536;47.128;8.746;2023-09-08T00:09:45;5.07;;;3.10;;
46777;SDS011;32536;47.128;8.746;2023-09-08T00:12:12;6.18;;;4.60;;
46777;SDS011;32536;47.128;8.746;2023-09-08T00:14:38;5.78;;;3.90;;
46777;SDS011;32536;47.128;8.746;2023-09-08T00:17:05;4.50;;;2.85;;
46777;SDS011;32536;47.128;8.746;2023-09-08T00:19:32;4.63;;;3.15;;
46777;SDS011;32536;47.128;8.746;2023-09-08T00:21:58;4.97;;;3.22;;
46777;SDS011;32536;47.128;8.746;2023-09-08T00:24:26;5.03;;;3.72;;
46777;SDS011;32536;47.128;8.746;2023-09-08T00:26:53;5.65;;;3.40;;
46777;SDS011;32536;47.128;8.746;2023-09-08T00:29:19;5.03;;;2.95;;
46777;SDS011;32536;47.128;8.746;2023-09-08T00:31:46;5.53;;;3.25;;
46777;SDS011;32536;47.128;8.746;2023-09-08T00:34:13;5.80;;;3.28;;
46777;SDS011;32536;47.128;8.746;2023-09-08T00:36:39;4.47;;;1.95;;
46777;SDS011;32536;47.128;8.746;2023-09-08T00:39:06;4.47;;;2.45;;
46777;SDS011;32536;47.128;8.746;2023-09-08T00:41:33;5.20;;;3.85;;
46777;SDS011;32536;47.128;8.746;2023-09-08T00:44:00;5.47;;;3.65;;
46777;SDS011;32536;47.128;8.746;2023-09-08T00:46:35;4.25;;;2.50;;
46777;SDS011;32536;47.128;8.746;2023-09-08T00:49:02;4.70;;;3.40;;
46777;SDS011;32536;47.128;8.746;2023-09-08T00:51:30;6.20;;;3.47;;
46777;SDS011;32536;47.128;8.746;2023-09-08T00:53:57;5.07;;;3.13;;
46777;SDS011;32536;47.128;8.746;2023-09-08T00:56:23;5.65;;;4.32;;
46777;SDS011;32536;47.128;8.746;2023-09-08T00:58:50;5.15;;;3.63;;
46777;SDS011;32536;47.128;8.746;2023-09-08T01:01:17;5.40;;;3.83;;
46777;SDS011;32536;47.128;8.746;2023-09-08T01:03:45;6.47;;;3.83;;
46777;SDS011;32536;47.128;8.746;2023-09-08T01:06:12;5.25;;;3.88;;
46777;SDS011;32536;47.128;8.746;2023-09-08T01:08:40;4.10;;;2.75;;
46777;SDS011;32536;47.128;8.746;2023-09-08T01:11:07;4.38;;;2.75;;
46777;SDS011;32536;47.128;8.746;2023-09-08T01:13:33;5.57;;;3.33;;
46777;SDS011;32536;47.128;8.746;2023-09-08T01:16:01;4.43;;;2.90;;
46777;SDS011;32536;47.128;8.746;2023-09-08T01:18:28;4.13;;;2.70;;
46777;SDS011;32536;47.128;8.746;2023-09-08T01:26:36;4.82;;;2.85;;
46777;SDS011;32536;47.128;8.746;2023-09-08T01:29:07;4.00;;;2.60;;
46777;SDS011;32536;47.128;8.746;2023-09-08T01:31:37;4.50;;;2.65;;
46777;SDS011;32536;47.128;8.746;2023-09-08T01:34:04;4.07;;;2.80;;
46777;SDS011;32536;47.128;8.746;2023-09-08T01:36:33;4.25;;;2.63;;
46777;SDS011;32536;47.128;8.746;2023-09-08T01:39:01;4.07;;;2.50;;
46777;SDS011;32536;47.128;8.746;2023-09-08T01:41:28;3.83;;;2.10;;
46777;SDS011;32536;47.128;8.746;2023-09-08T01:43:57;5.93;;;3.03;;
46777;SDS011;32536;47.128;8.746;2023-09-08T01:46:37;4.93;;;2.70;;
46777;SDS011;32536;47.128;8.746;2023-09-08T01:49:04;4.88;;;2.53;;
46777;SDS011;32536;47.128;8.746;2023-09-08T01:51:31;4.85;;;3.25;;
46777;SDS011;32536;47.128;8.746;2023-09-08T01:53:58;4.90;;;3.17;;
46777;SDS011;32536;47.128;8.746;2023-09-08T01:56:24;4.78;;;2.20;;
46777;SDS011;32536;47.128;8.746;2023-09-08T01:58:51;5.32;;;3.00;;
46777;SDS011;32536;47.128;8.746;2023-09-08T02:01:18;4.53;;;3.40;;
46777;SDS011;32536;47.128;8.746;2023-09-08T02:03:45;3.83;;;1.90;;
46777;SDS011;32536;47.128;8.746;2023-09-08T02:06:11;5.30;;;2.97;;
46777;SDS011;32536;47.128;8.746;2023-09-08T02:08:38;4.88;;;3.40;;
46777;SDS011;32536;47.128;8.746;2023-09-08T02:11:05;8.40;;;3.30;;
46777;SDS011;32536;47.128;8.746;2023-09-08T02:13:31;4.20;;;1.70;;
46777;SDS011;32536;47.128;8.746;2023-09-08T02:15:58;4.85;;;2.95;;
46777;SDS011;32536;47.128;8.746;2023-09-08T02:18:25;4.75;;;2.90;;
46777;SDS011;32536;47.128;8.746;2023-09-08T02:20:52;4.85;;;2.80;;
46777;SDS011;32536;47.128;8.746;2023-09-08T02:23:19;5.15;;;3.40;;
46777;SDS011;32536;47.128;8.746;2023-09-08T02:25:45;4.85;;;2.80;;
46777;SDS011;32536;47.128;8.746;2023-09-08T02:28:12;4.43;;;2.90;;
46777;SDS011;32536;47.128;8.746;2023-09-08T02:30:39;4.95;;;2.72;;
46777;SDS011;32536;47.128;8.746;2023-09-08T02:33:05;3.92;;;2.22;;
46777;SDS011;32536;47.128;8.746;2023-09-08T02:35:35;4.57;;;2.38;;
46777;SDS011;32536;47.128;8.746;2023-09-08T02:38:06;5.15;;;2.45;;
46777;SDS011;32536;47.128;8.746;2023-09-08T02:40:33;4.68;;;3.35;;
46777;SDS011;32536;47.128;8.746;2023-09-08T02:43:00;4.10;;;2.42;;
46777;SDS011;32536;47.128;8.746;2023-09-08T02:45:27;5.40;;;3.15;;
46777;SDS011;32536;47.128;8.746;2023-09-08T02:47:55;4.30;;;2.15;;
46777;SDS011;32536;47.128;8.746;2023-09-08T02:50:22;5.75;;;3.00;;
46777;SDS011;32536;47.128;8.746;2023-09-08T02:52:49;4.43;;;2.47;;
46777;SDS011;32536;47.128;8.746;2023-09-08T02:55:16;3.72;;;2.05;;
46777;SDS011;32536;47.128;8.746;2023-09-08T02:57:42;5.28;;;3.40;;
46777;SDS011;32536;47.128;8.746;2023-09-08T03:00:09;5.20;;;3.45;;
46777;SDS011;32536;47.128;8.746;2023-09-08T03:02:36;4.70;;;3.15;;
46777;SDS011;32536;47.128;8.746;2023-09-08T03:05:03;4.18;;;2.53;;
46777;SDS011;32536;47.128;8.746;2023-09-08T03:07:31;4.07;;;2.58;;
46777;SDS011;32536;47.128;8.746;2023-09-08T03:09:59;4.18;;;2.55;;
46777;SDS011;32536;47.128;8.746;2023-09-08T03:12:26;4.18;;;2.28;;
46777;SDS011;32536;47.128;8.746;2023-09-08T03:14:52;4.00;;;2.10;;
46777;SDS011;32536;47.128;8.746;2023-09-08T03:17:20;4.53;;;2.70;;
46777;SDS011;32536;47.128;8.746;2023-09-08T03:19:47;4.53;;;2.72;;
46777;SDS011;32536;47.128;8.746;2023-09-08T03:22:14;7.65;;;2.60;;
46777;SDS011;32536;47.128;8.746;2023-09-08T03:24:40;4.78;;;3.45;;
46777;SDS011;32536;47.128;8.746;2023-09-08T03:27:07;4.63;;;3.03;;
46777;SDS011;32536;47.128;8.746;2023-09-08T03:29:34;4.22;;;2.70;;
46777;SDS011;32536;47.128;8.746;2023-09-08T03:32:01;4.35;;;2.80;;
46777;SDS011;32536;47.128;8.746;2023-09-08T03:34:27;5.35;;;2.25;;
46777;SDS011;32536;47.128;8.746;2023-09-08T03:36:54;3.65;;;1.80;;
46777;SDS011;32536;47.128;8.746;2023-09-08T03:39:21;4.45;;;2.95;;
46777;SDS011;32536;47.128;8.746;2023-09-08T03:41:47;4.22;;;2.60;;
46777;SDS011;32536;47.128;8.746;2023-09-08T03:44:14;4.22;;;2.72;;
46777;SDS011;32536;47.128;8.746;2023-09-08T03:46:44;4.00;;;2.60;;
46777;SDS011;32536;47.128;8.746;2023-09-08T03:49:11;3.38;;;2.30;;
46777;SDS011;32536;47.128;8.746;2023-09-08T03:51:37;4.70;;;2.22;;
46777;SDS011;32536;47.128;8.746;2023-09-08T03:54:05;4.50;;;2.60;;
46777;SDS011;32536;47.128;8.746;2023-09-08T03:56:31;3.85;;;2.45;;
46777;SDS011;32536;47.128;8.746;2023-09-08T03:58:58;4.00;;;1.98;;
46777;SDS011;32536;47.128;8.746;2023-09-08T04:01:25;4.57;;;3.13;;
46777;SDS011;32536;47.128;8.746;2023-09-08T04:03:52;3.85;;;2.65;;
46777;SDS011;32536;47.128;8.746;2023-09-08T04:06:18;3.33;;;1.38;;
46777;SDS011;32536;47.128;8.746;2023-09-08T04:08:45;4.15;;;2.53;;
46777;SDS011;32536;47.128;8.746;2023-09-08T04:11:12;4.10;;;2.38;;
46777;SDS011;32536;47.128;8.746;2023-09-08T04:13:38;4.63;;;3.00;;
46777;SDS011;32536;47.128;8.746;2023-09-08T04:16:05;4.35;;;2.15;;
46777;SDS011;32536;47.128;8.746;2023-09-08T04:18:32;4.60;;;2.55;;
46777;SDS011;32536;47.128;8.746;2023-09-08T04:20:58;3.88;;;2.65;;
46777;SDS011;32536;47.128;8.746;2023-09-08T04:23:25;3.95;;;2.30;;
46777;SDS011;32536;47.128;8.746;2023-09-08T04:25:52;5.18;;;2.78;;
46777;SDS011;32536;47.128;8.746;2023-09-08T04:28:18;5.07;;;2.72;;
46777;SDS011;32536;47.128;8.746;2023-09-08T04:30:45;4.28;;;2.95;;
46777;SDS011;32536;47.128;8.746;2023-09-08T04:33:12;4.35;;;2.65;;
46777;SDS011;32536;47.128;8.746;2023-09-08T04:35:39;4.07;;;2.65;;
46777;SDS011;32536;47.128;8.746;2023-09-08T04:38:05;4.40;;;2.30;;
46777;SDS011;32536;47.128;8.746;2023-09-08T04:40:32;4.82;;;2.80;;
46777;SDS011;32536;47.128;8.746;2023-09-08T04:42:59;3.53;;;2.22;;
46777;SDS011;32536;47.128;8.746;2023-09-08T04:45:26;3.92;;;1.85;;
46777;SDS011;32536;47.128;8.746;2023-09-08T04:47:52;3.70;;;2.00;;
46777;SDS011;32536;47.128;8.746;2023-09-08T04:50:19;4.70;;;2.50;;
46777;SDS011;32536;47.128;8.746;2023-09-08T04:52:46;3.50;;;1.92;;
46777;SDS011;32536;47.128;8.746;2023-09-08T04:55:13;3.60;;;2.13;;
46777;SDS011;32536;47.128;8.746;2023-09-08T04:57:39;4.18;;;2.60;;
46777;SDS011;32536;47.128;8.746;2023-09-08T05:00:06;4.00;;;2.38;;
46777;SDS011;32536;47.128;8.746;2023-09-08T05:02:34;4.47;;;3.00;;
46777;SDS011;32536;47.128;8.746;2023-09-08T05:05:00;4.45;;;2.58;;
46777;SDS011;32536;47.128;8.746;2023-09-08T05:07:27;4.03;;;2.00;;
46777;SDS011;32536;47.128;8.746;2023-09-08T05:09:54;3.90;;;1.88;;
46777;SDS011;32536;47.128;8.746;2023-09-08T05:12:20;4.85;;;2.55;;
46777;SDS011;32536;47.128;8.746;2023-09-08T05:14:47;5.22;;;3.63;;
46777;SDS011;32536;47.128;8.746;2023-09-08T05:17:14;4.88;;;3.45;;
46777;SDS011;32536;47.128;8.746;2023-09-08T05:19:41;5.25;;;2.97;;
46777;SDS011;32536;47.128;8.746;2023-09-08T05:22:08;4.88;;;2.95;;
46777;SDS011;32536;47.128;8.746;2023-09-08T05:24:34;4.25;;;2.53;;
46777;SDS011;32536;47.128;8.746;2023-09-08T05:27:01;5.07;;;2.05;;
46777;SDS011;32536;47.128;8.746;2023-09-08T05:29:28;4.70;;;2.28;;
46777;SDS011;32536;47.128;8.746;2023-09-08T05:31:55;3.65;;;2.03;;
46777;SDS011;32536;47.128;8.746;2023-09-08T05:34:21;4.68;;;2.53;;
46777;SDS011;32536;47.128;8.746;2023-09-08T05:36:48;4.70;;;1.95;;
46777;SDS011;32536;47.128;8.746;2023-09-08T05:39:15;4.13;;;2.13;;
46777;SDS011;32536;47.128;8.746;2023-09-08T05:41:44;4.55;;;2.10;;
46777;SDS011;32536;47.128;8.746;2023-09-08T05:44:11;4.13;;;2.47;;
46777;SDS011;32536;47.128;8.746;2023-09-08T05:46:53;4.50;;;2.83;;
46777;SDS011;32536;47.128;8.746;2023-09-08T05:49:20;4.07;;;2.70;;
46777;SDS011;32536;47.128;8.746;2023-09-08T05:51:47;4.03;;;2.25;;
46777;SDS011;32536;47.128;8.746;2023-09-08T05:54:15;3.75;;;1.90;;
46777;SDS011;32536;47.128;8.746;2023-09-08T05:56:41;4.22;;;3.13;;
46777;SDS011;32536;47.128;8.746;2023-09-08T05:59:08;3.35;;;1.65;;
46777;SDS011;32536;47.128;8.746;2023-09-08T06:01:35;4.63;;;2.70;;
46777;SDS011;32536;47.128;8.746;2023-09-08T06:04:02;4.75;;;3.03;;
46777;SDS011;32536;47.128;8.746;2023-09-08T06:06:29;4.50;;;2.45;;
46777;SDS011;32536;47.128;8.746;2023-09-08T06:08:56;3.58;;;2.35;;
46777;SDS011;32536;47.128;8.746;2023-09-08T06:11:23;5.20;;;2.90;;
46777;SDS011;32536;47.128;8.746;2023-09-08T06:13:49;7.32;;;3.97;;
46777;SDS011;32536;47.128;8.746;2023-09-08T06:16:18;6.60;;;3.97;;
46777;SDS011;32536;47.128;8.746;2023-09-08T06:18:44;5.60;;;3.60;;
46777;SDS011;32536;47.128;8.746;2023-09-08T06:21:11;5.95;;;3.85;;
46777;SDS011;32536;47.128;8.746;2023-09-08T06:23:38;5.68;;;3.28;;
46777;SDS011;32536;47.128;8.746;2023-09-08T06:26:05;5.22;;;2.92;;
46777;SDS011;32536;47.128;8.746;2023-09-08T06:28:32;6.18;;;3.58;;
46777;SDS011;32536;47.128;8.746;2023-09-08T06:30:59;4.82;;;3.28;;
46777;SDS011;32536;47.128;8.746;2023-09-08T06:33:25;5.40;;;3.03;;
46777;SDS011;32536;47.128;8.746;2023-09-08T06:35:52;5.32;;;3.80;;
46777;SDS011;32536;47.128;8.746;2023-09-08T06:38:19;5.22;;;2.63;;
46777;SDS011;32536;47.128;8.746;2023-09-08T06:40:46;5.80;;;4.25;;
46777;SDS011;32536;47.128;8.746;2023-09-08T06:43:13;4.90;;;2.72;;
46777;SDS011;32536;47.128;8.746;2023-09-08T06:45:40;4.72;;;2.80;;
46777;SDS011;32536;47.128;8.746;2023-09-08T06:48:07;4.97;;;3.25;;
46777;SDS011;32536;47.128;8.746;2023-09-08T06:50:34;4.75;;;3.15;;
46777;SDS011;32536;47.128;8.746;2023-09-08T06:53:00;4.85;;;3.08;;
46777;SDS011;32536;47.128;8.746;2023-09-08T06:55:27;5.07;;;2.63;;
46777;SDS011;32536;47.128;8.746;2023-09-08T06:57:54;8.00;;;3.90;;
46777;SDS011;32536;47.128;8.746;2023-09-08T07:00:21;6.43;;;3.97;;
46777;SDS011;32536;47.128;8.746;2023-09-08T07:02:47;5.57;;;2.83;;
46777;SDS011;32536;47.128;8.746;2023-09-08T07:05:17;4.13;;;2.75;;
46777;SDS011;32536;47.128;8.746;2023-09-08T07:07:44;4.57;;;2.72;;
46777;SDS011;32536;47.128;8.746;2023-09-08T07:10:11;5.65;;;3.38;;
46777;SDS011;32536;47.128;8.746;2023-09-08T07:12:38;5.28;;;3.55;;
46777;SDS011;32536;47.128;8.746;2023-09-08T07:15:05;4.95;;;2.85;;
46777;SDS011;32536;47.128;8.746;2023-09-08T07:17:32;5.07;;;3.17;;
46777;SDS011;32536;47.128;8.746;2023-09-08T07:19:58;5.10;;;2.97;;
46777;SDS011;32536;47.128;8.746;2023-09-08T07:22:25;4.78;;;3.33;;
46777;SDS011;32536;47.128;8.746;2023-09-08T07:24:52;3.65;;;1.70;;
46777;SDS011;32536;47.128;8.746;2023-09-08T07:27:19;3.85;;;2.55;;
46777;SDS011;32536;47.128;8.746;2023-09-08T07:29:45;4.93;;;3.00;;
46777;SDS011;32536;47.128;8.746;2023-09-08T07:32:13;4.50;;;2.45;;
46777;SDS011;32536;47.128;8.746;2023-09-08T07:34:40;5.03;;;3.42;;
46777;SDS011;32536;47.128;8.746;2023-09-08T07:37:07;5.00;;;2.95;;
46777;SDS011;32536;47.128;8.746;2023-09-08T07:39:33;6.15;;;3.00;;
46777;SDS011;32536;47.128;8.746;2023-09-08T07:42:01;4.55;;;2.17;;
46777;SDS011;32536;47.128;8.746;2023-09-08T07:44:28;4.10;;;2.00;;
46777;SDS011;32536;47.128;8.746;2023-09-08T07:47:01;4.38;;;2.95;;
46777;SDS011;32536;47.128;8.746;2023-09-08T07:49:28;4.68;;;2.75;;
46777;SDS011;32536;47.128;8.746;2023-09-08T07:51:54;5.32;;;3.33;;
46777;SDS011;32536;47.128;8.746;2023-09-08T07:54:21;4.70;;;2.85;;
46777;SDS011;32536;47.128;8.746;2023-09-08T07:56:48;4.78;;;2.65;;
46777;SDS011;32536;47.128;8.746;2023-09-08T07:59:14;4.07;;;2.58;;
46777;SDS011;32536;47.128;8.746;2023-09-08T08:01:41;5.10;;;3.28;;
46777;SDS011;32536;47.128;8.746;2023-09-08T08:04:08;5.20;;;3.28;;
46777;SDS011;32536;47.128;8.746;2023-09-08T08:06:35;4.97;;;2.78;;
46777;SDS011;32536;47.128;8.746;2023-09-08T08:09:02;4.32;;;2.83;;
46777;SDS011;32536;47.128;8.746;2023-09-08T08:11:29;4.95;;;3.25;;
46777;SDS011;32536;47.128;8.746;2023-09-08T08:13:56;4.40;;;3.10;;
46777;SDS011;32536;47.128;8.746;2023-09-08T08:16:23;4.22;;;2.58;;
46777;SDS011;32536;47.128;8.746;2023-09-08T08:18:50;4.72;;;3.15;;
46777;SDS011;32536;47.128;8.746;2023-09-08T08:21:18;4.28;;;2.63;;
46777;SDS011;32536;47.128;8.746;2023-09-08T08:23:44;4.32;;;2.67;;
46777;SDS011;32536;47.128;8.746;2023-09-08T08:26:11;4.93;;;2.72;;
46777;SDS011;32536;47.128;8.746;2023-09-08T08:28:38;5.93;;;3.70;;
46777;SDS011;32536;47.128;8.746;2023-09-08T08:31:05;4.28;;;2.80;;
46777;SDS011;32536;47.128;8.746;2023-09-08T08:33:31;4.85;;;3.63;;
46777;SDS011;32536;47.128;8.746;2023-09-08T08:35:58;3.92;;;2.15;;
46777;SDS011;32536;47.128;8.746;2023-09-08T08:38:26;3.88;;;1.98;;
46777;SDS011;32536;47.128;8.746;2023-09-08T08:40:52;4.75;;;3.35;;
46777;SDS011;32536;47.128;8.746;2023-09-08T08:43:19;5.47;;;3.53;;
46777;SDS011;32536;47.128;8.746;2023-09-08T08:45:48;5.22;;;3.17;;
46777;SDS011;32536;47.128;8.746;2023-09-08T08:48:16;4.63;;;3.15;;
46777;SDS011;32536;47.128;8.746;2023-09-08T08:50:46;4.18;;;2.30;;
46777;SDS011;32536;47.128;8.746;2023-09-08T08:53:14;4.90;;;3.00;;
46777;SDS011;32536;47.128;8.746;2023-09-08T08:55:42;5.20;;;3.85;;
46777;SDS011;32536;47.128;8.746;2023-09-08T08:58:10;6.63;;;5.05;;
46777;SDS011;32536;47.128;8.746;2023-09-08T09:00:40;6.40;;;4.85;;
46777;SDS011;32536;47.128;8.746;2023-09-08T09:03:07;5.10;;;3.30;;
46777;SDS011;32536;47.128;8.746;2023-09-08T09:05:35;6.00;;;4.00;;
46777;SDS011;32536;47.128;8.746;2023-09-08T09:08:04;4.47;;;2.88;;
46777;SDS011;32536;47.128;8.746;2023-09-08T09:10:32;5.22;;;3.40;;
46777;SDS011;32536;47.128;8.746;2023-09-08T09:12:59;5.38;;;3.50;;
46777;SDS011;32536;47.128;8.746;2023-09-08T09:15:29;5.60;;;4.10;;
46777;SDS011;32536;47.128;8.746;2023-09-08T09:18:01;5.75;;;3.53;;
46777;SDS011;32536;47.128;8.746;2023-09-08T09:20:32;5.35;;;3.83;;
46777;SDS011;32536;47.128;8.746;2023-09-08T09:22:59;5.80;;;3.80;;
46777;SDS011;32536;47.128;8.746;2023-09-08T09:25:27;5.28;;;3.50;;
46777;SDS011;32536;47.128;8.746;2023-09-08T09:27:57;5.55;;;3.75;;
46777;SDS011;32536;47.128;8.746;2023-09-08T09:30:26;5.22;;;3.70;;
46777;SDS011;32536;47.128;8.746;2023-09-08T09:33:02;5.10;;;3.10;;
46777;SDS011;32536;47.128;8.746;2023-09-08T09:35:43;4.80;;;2.20;;
46777;SDS011;32536;47.128;8.746;2023-09-08T09:38:13;4.15;;;2.70;;
46777;SDS011;32536;47.128;8.746;2023-09-08T09:40:40;4.75;;;2.92;;
46777;SDS011;32536;47.128;8.746;2023-09-08T09:43:07;5.15;;;3.00;;
46777;SDS011;32536;47.128;8.746;2023-09-08T09:45:37;4.88;;;2.78;;
46777;SDS011;32536;47.128;8.746;2023-09-08T09:48:05;5.43;;;2.88;;
46777;SDS011;32536;47.128;8.746;2023-09-08T09:50:37;5.93;;;3.03;;
46777;SDS011;32536;47.128;8.746;2023-09-08T09:55:42;5.38;;;3.35;;
46777;SDS011;32536;47.128;8.746;2023-09-08T09:58:10;6.47;;;4.13;;
46777;SDS011;32536;47.128;8.746;2023-09-08T10:00:39;7.55;;;3.38;;
46777;SDS011;32536;47.128;8.746;2023-09-08T10:03:07;5.57;;;3.20;;
46777;SDS011;32536;47.128;8.746;2023-09-08T10:05:34;5.88;;;3.85;;
46777;SDS011;32536;47.128;8.746;2023-09-08T10:08:00;6.25;;;3.75;;
46777;SDS011;32536;47.128;8.746;2023-09-08T10:10:27;6.30;;;4.32;;
46777;SDS011;32536;47.128;8.746;2023-09-08T10:12:57;5.07;;;3.50;;
46777;SDS011;32536;47.128;8.746;2023-09-08T10:15:31;6.13;;;4.38;;
46777;SDS011;32536;47.128;8.746;2023-09-08T10:17:59;6.28;;;4.22;;
46777;SDS011;32536;47.128;8.746;2023-09-08T10:20:30;6.07;;;4.03;;
46777;SDS011;32536;47.128;8.746;2023-09-08T10:23:07;6.60;;;3.80;;
46777;SDS011;32536;47.128;8.746;2023-09-08T10:25:43;5.15;;;3.22;;
46777;SDS011;32536;47.128;8.746;2023-09-08T10:28:15;4.93;;;3.75;;
46777;SDS011;32536;47.128;8.746;2023-09-08T10:30:42;5.10;;;3.30;;
46777;SDS011;32536;47.128;8.746;2023-09-08T10:33:09;5.93;;;3.72;;
46777;SDS011;32536;47.128;8.746;2023-09-08T10:35:37;5.57;;;3.25;;
46777;SDS011;32536;47.128;8.746;2023-09-08T10:43:44;5.97;;;3.53;;
46777;SDS011;32536;47.128;8.746;2023-09-08T10:46:33;6.00;;;4.28;;
46777;SDS011;32536;47.128;8.746;2023-09-08T10:49:04;6.40;;;4.82;;
46777;SDS011;32536;47.128;8.746;2023-09-08T10:51:33;6.20;;;4.32;;
46777;SDS011;32536;47.128;8.746;2023-09-08T10:54:01;6.68;;;4.78;;
46777;SDS011;32536;47.128;8.746;2023-09-08T10:56:46;6.50;;;4.72;;
46777;SDS011;32536;47.128;8.746;2023-09-08T10:59:28;6.90;;;4.50;;
46777;SDS011;32536;47.128;8.746;2023-09-08T11:02:03;6.53;;;5.53;;
46777;SDS011;32536;47.128;8.746;2023-09-08T11:04:30;7.45;;;5.38;;
46777;SDS011;32536;47.128;8.746;2023-09-08T11:06:59;6.65;;;5.05;;
46777;SDS011;32536;47.128;8.746;2023-09-08T11:09:28;6.15;;;4.60;;
46777;SDS011;32536;47.128;8.746;2023-09-08T11:11:55;6.72;;;3.75;;
46777;SDS011;32536;47.128;8.746;2023-09-08T11:14:22;6.32;;;4.22;;
46777;SDS011;32536;47.128;8.746;2023-09-08T11:16:48;7.63;;;5.95;;
46777;SDS011;32536;47.128;8.746;2023-09-08T11:19:15;8.25;;;5.68;;
46777;SDS011;32536;47.128;8.746;2023-09-08T11:21:42;6.82;;;5.00;;
46777;SDS011;32536;47.128;8.746;2023-09-08T11:24:10;5.60;;;4.05;;
46777;SDS011;32536;47.128;8.746;2023-09-08T11:26:40;5.65;;;4.25;;
46777;SDS011;32536;47.128;8.746;2023-09-08T11:29:11;6.78;;;4.32;;
46777;SDS011;32536;47.128;8.746;2023-09-08T11:31:38;6.63;;;4.25;;
46777;SDS011;32536;47.128;8.746;2023-09-08T11:34:04;7.28;;;5.05;;
46777;SDS011;32536;47.128;8.746;2023-09-08T11:36:31;6.40;;;4.25;;
46777;SDS011;32536;47.128;8.746;2023-09-08T11:38:58;5.55;;;3.53;;
46777;SDS011;32536;47.128;8.746;2023-09-08T11:41:24;5.03;;;3.70;;
46777;SDS011;32536;47.128;8.746;2023-09-08T11:43:51;5.30;;;3.45;;
46777;SDS011;32536;47.128;8.746;2023-09-08T11:46:18;6.35;;;4.18;;
46777;SDS011;32536;47.128;8.746;2023-09-08T11:48:45;5.75;;;4.53;;
46777;SDS011;32536;47.128;8.746;2023-09-08T11:51:12;6.13;;;4.88;;
46777;SDS011;32536;47.128;8.746;2023-09-08T11:53:39;6.38;;;4.72;;
46777;SDS011;32536;47.128;8.746;2023-09-08T11:56:07;7.00;;;4.72;;
46777;SDS011;32536;47.128;8.746;2023-09-08T11:58:34;5.60;;;3.92;;
46777;SDS011;32536;47.128;8.746;2023-09-08T12:01:01;5.95;;;4.05;;
46777;SDS011;32536;47.128;8.746;2023-09-08T12:03:29;4.35;;;2.40;;
46777;SDS011;32536;47.128;8.746;2023-09-08T12:05:56;5.97;;;3.67;;
46777;SDS011;32536;47.128;8.746;2023-09-08T12:08:24;4.90;;;3.20;;
46777;SDS011;32536;47.128;8.746;2023-09-08T12:10:53;5.72;;;3.22;;
46777;SDS011;32536;47.128;8.746;2023-09-08T12:13:21;5.82;;;3.25;;
46777;SDS011;32536;47.128;8.746;2023-09-08T12:15:49;4.78;;;2.95;;
46777;SDS011;32536;47.128;8.746;2023-09-08T12:18:16;5.70;;;2.65;;
46777;SDS011;32536;47.128;8.746;2023-09-08T12:20:43;5.82;;;3.53;;
46777;SDS011;32536;47.128;8.746;2023-09-08T12:23:17;5.85;;;3.67;;
46777;SDS011;32536;47.128;8.746;2023-09-08T12:25:48;4.50;;;2.85;;
46777;SDS011;32536;47.128;8.746;2023-09-08T12:28:18;5.47;;;3.30;;
46777;SDS011;32536;47.128;8.746;2023-09-08T12:30:46;6.32;;;4.40;;
46777;SDS011;32536;47.128;8.746;2023-09-08T12:33:16;5.35;;;3.58;;
46777;SDS011;32536;47.128;8.746;2023-09-08T12:35:46;5.30;;;3.33;;
46777;SDS011;32536;47.128;8.746;2023-09-08T12:38:18;4.50;;;3.17;;
46777;SDS011;32536;47.128;8.746;2023-09-08T12:40:45;7.95;;;4.45;;
46777;SDS011;32536;47.128;8.746;2023-09-08T12:43:11;6.97;;;3.80;;
46777;SDS011;32536;47.128;8.746;2023-09-08T12:45:38;5.65;;;3.83;;
46777;SDS011;32536;47.128;8.746;2023-09-08T12:48:05;6.35;;;4.32;;
46777;SDS011;32536;47.128;8.746;2023-09-08T12:50:33;5.05;;;2.85;;
46777;SDS011;32536;47.128;8.746;2023-09-08T12:52:59;7.25;;;4.95;;
46777;SDS011;32536;47.128;8.746;2023-09-08T12:55:26;5.63;;;3.78;;
46777;SDS011;32536;47.128;8.746;2023-09-08T12:57:53;5.00;;;3.83;;
46777;SDS011;32536;47.128;8.746;2023-09-08T13:00:23;4.90;;;3.22;;
46777;SDS011;32536;47.128;8.746;2023-09-08T13:02:50;6.53;;;4.60;;
46777;SDS011;32536;47.128;8.746;2023-09-08T13:05:17;6.80;;;4.82;;
46777;SDS011;32536;47.128;8.746;2023-09-08T13:07:44;6.18;;;4.47;;
46777;SDS011;32536;47.128;8.746;2023-09-08T13:10:10;5.47;;;3.65;;
46777;SDS011;32536;47.128;8.746;2023-09-08T13:12:37;4.78;;;3.40;;
46777;SDS011;32536;47.128;8.746;2023-09-08T13:15:04;4.72;;;3.03;;
46777;SDS011;32536;47.128;8.746;2023-09-08T13:17:31;5.20;;;4.00;;
46777;SDS011;32536;47.128;8.746;2023-09-08T13:19:58;5.93;;;4.65;;
46777;SDS011;32536;47.128;8.746;2023-09-08T13:22:25;5.55;;;4.03;;
46777;SDS011;32536;47.128;8.746;2023-09-08T13:24:52;5.78;;;4.18;;
46777;SDS011;32536;47.128;8.746;2023-09-08T13:27:18;5.38;;;3.65;;
46777;SDS011;32536;47.128;8.746;2023-09-08T13:29:45;4.72;;;3.28;;
46777;SDS011;32536;47.128;8.746;2023-09-08T13:32:12;5.65;;;3.40;;
46777;SDS011;32536;47.128;8.746;2023-09-08T13:34:39;4.60;;;2.88;;
46777;SDS011;32536;47.128;8.746;2023-09-08T13:37:05;4.00;;;2.47;;
46777;SDS011;32536;47.128;8.746;2023-09-08T13:39:32;5.25;;;3.03;;
46777;SDS011;32536;47.128;8.746;2023-09-08T13:41:59;6.03;;;2.97;;
46777;SDS011;32536;47.128;8.746;2023-09-08T13:44:27;5.65;;;3.63;;
46777;SDS011;32536;47.128;8.746;2023-09-08T13:49:49;6.07;;;3.95;;
46777;SDS011;32536;47.128;8.746;2023-09-08T13:52:15;5.30;;;2.97;;
46777;SDS011;32536;47.128;8.746;2023-09-08T13:54:42;5.15;;;3.28;;
46777;SDS011;32536;47.128;8.746;2023-09-08T13:57:09;4.13;;;2.42;;
46777;SDS011;32536;47.128;8.746;2023-09-08T13:59:35;5.50;;;3.47;;
46777;SDS011;32536;47.128;8.746;2023-09-08T14:02:02;5.18;;;3.60;;
46777;SDS011;32536;47.128;8.746;2023-09-08T14:04:29;4.88;;;3.40;;
46777;SDS011;32536;47.128;8.746;2023-09-08T14:06:56;5.07;;;3.42;;
46777;SDS011;32536;47.128;8.746;2023-09-08T14:09:23;6.10;;;3.72;;
46777;SDS011;32536;47.128;8.746;2023-09-08T14:11:49;4.93;;;3.15;;
46777;SDS011;32536;47.128;8.746;2023-09-08T14:14:16;5.05;;;3.70;;
46777;SDS011;32536;47.128;8.746;2023-09-08T14:16:43;4.80;;;2.70;;
46777;SDS011;32536;47.128;8.746;2023-09-08T14:19:09;5.30;;;3.70;;
46777;SDS011;32536;47.128;8.746;2023-09-08T14:21:36;4.65;;;3.03;;
46777;SDS011;32536;47.128;8.746;2023-09-08T14:24:05;5.10;;;3.15;;
46777;SDS011;32536;47.128;8.746;2023-09-08T14:26:32;6.03;;;3.85;;
46777;SDS011;32536;47.128;8.746;2023-09-08T14:29:00;5.15;;;3.35;;
46777;SDS011;32536;47.128;8.746;2023-09-08T14:31:27;4.90;;;3.45;;
46777;SDS011;32536;47.128;8.746;2023-09-08T14:33:53;7.93;;;3.60;;
46777;SDS011;32536;47.128;8.746;2023-09-08T14:36:20;5.25;;;3.30;;
46777;SDS011;32536;47.128;8.746;2023-09-08T14:38:48;5.03;;;3.13;;
46777;SDS011;32536;47.128;8.746;2023-09-08T14:41:15;4.80;;;3.17;;
46777;SDS011;32536;47.128;8.746;2023-09-08T14:43:41;5.20;;;3.40;;
46777;SDS011;32536;47.128;8.746;2023-09-08T14:46:08;5.68;;;3.88;;
46777;SDS011;32536;47.128;8.746;2023-09-08T14:48:35;5.03;;;3.15;;
46777;SDS011;32536;47.128;8.746;2023-09-08T14:51:02;5.50;;;3.55;;
46777;SDS011;32536;47.128;8.746;2023-09-08T14:53:31;6.13;;;3.42;;
46777;SDS011;32536;47.128;8.746;2023-09-08T14:55:58;4.85;;;3.33;;
46777;SDS011;32536;47.128;8.746;2023-09-08T14:58:25;9.45;;;4.25;;
46777;SDS011;32536;47.128;8.746;2023-09-08T15:00:57;6.40;;;3.45;;
46777;SDS011;32536;47.128;8.746;2023-09-08T15:03:30;5.05;;;3.33;;
46777;SDS011;32536;47.128;8.746;2023-09-08T15:05:58;4.55;;;2.72;;
46777;SDS011;32536;47.128;8.746;2023-09-08T15:08:25;6.70;;;5.20;;